Time;durP1;ratioP1;P1;durP2;ratioP2;P2;SDS_P1;SDS_P2;PMS_P1;PMS_P2;Temp;Humidity;BMP_temperature;BMP_pressure;BME280_temperature;BME280_humidity;BME280_pressure;Samples;Min_cycle;Max_cycle;Signal;HPM_P1;HPM_P2
2023/05/15 00:00:15;;;;;;;3.20;2.43;;;12.50;99.90;12.60;100209.00;;;;4924976;28;92739;-69
2023/05/15 00:02:40;;;;;;;3.43;2.77;;;12.60;99.90;12.60;100204.00;;;;4921653;28;117050;-69
2023/05/15 00:05:07;;;;;;;2.57;2.00;;;12.60;99.90;12.60;100201.00;;;;4924540;28;93220;-70
2023/05/15 00:07:33;;;;;;;4.60;2.77;;;12.60;99.90;12.70;100193.00;;;;4926837;28;92407;-69
2023/05/15 00:09:59;;;;;;;3.30;2.90;;;12.60;99.90;12.60;100199.00;;;;4924975;28;93625;-69
2023/05/15 00:12:25;;;;;;;3.23;2.40;;;12.60;99.90;12.60;100193.00;;;;4922887;28;122768;-69
2023/05/15 00:14:51;;;;;;;2.83;2.30;;;12.60;99.90;12.60;100191.00;;;;4924636;28;122627;-69
2023/05/15 00:17:16;;;;;;;4.07;2.80;;;12.60;99.90;12.60;100187.00;;;;4921709;28;110439;-69
2023/05/15 00:19:42;;;;;;;2.57;2.20;;;12.60;99.90;12.60;100180.00;;;;4926723;28;109573;-69
2023/05/15 00:22:08;;;;;;;2.63;2.03;;;12.60;99.90;12.60;100176.00;;;;4928347;28;94755;-70
2023/05/15 00:24:34;;;;;;;4.17;2.83;;;12.60;99.90;12.50;100167.00;;;;4920825;28;122469;-68
2023/05/15 00:27:00;;;;;;;2.10;1.93;;;12.60;99.90;12.40;100164.00;;;;4928947;28;92900;-70
2023/05/15 00:29:26;;;;;;;8.03;2.70;;;12.50;99.90;12.30;100163.00;;;;4925414;28;108661;-70
2023/05/15 00:31:52;;;;;;;2.60;2.27;;;12.40;99.90;12.20;100157.00;;;;4924366;28;122438;-70
2023/05/15 00:34:18;;;;;;;2.47;2.20;;;12.30;99.90;12.10;100161.00;;;;4927312;28;92943;-70
2023/05/15 00:36:44;;;;;;;4.00;2.83;;;12.20;99.90;12.00;100153.00;;;;4926162;28;108722;-70
2023/05/15 00:39:10;;;;;;;3.13;2.77;;;12.10;99.90;11.90;100153.00;;;;4923276;28;94044;-70
2023/05/15 00:41:36;;;;;;;2.33;2.13;;;12.00;99.90;11.80;100147.00;;;;4930311;28;95427;-70
2023/05/15 00:44:02;;;;;;;2.77;2.10;;;11.90;99.90;11.70;100150.00;;;;4928650;28;93894;-71
2023/05/15 00:46:31;;;;;;;2.77;2.40;;;11.80;99.90;11.60;100151.00;;;;4921702;28;92793;-70
2023/05/15 00:48:57;;;;;;;2.07;1.60;;;11.70;99.90;11.60;100147.00;;;;4925950;28;93131;-70
2023/05/15 00:51:26;;;;;;;2.90;2.60;;;11.70;99.90;11.60;100147.00;;;;4921716;28;122151;-70
2023/05/15 00:53:53;;;;;;;2.40;2.13;;;11.70;99.90;11.60;100146.00;;;;4936681;28;93146;-70
2023/05/15 00:56:20;;;;;;;4.17;3.03;;;11.60;99.90;11.60;100144.00;;;;4925051;28;91990;-70
2023/05/15 00:58:48;;;;;;;2.57;2.27;;;11.60;99.90;11.50;100136.00;;;;4922476;28;92959;-70
2023/05/15 01:01:16;;;;;;;2.30;1.90;;;11.60;99.90;11.50;100143.00;;;;4926576;28;102497;-71
2023/05/15 01:03:43;;;;;;;3.37;2.47;;;11.60;99.90;11.50;100139.00;;;;4925096;28;94184;-70
2023/05/15 01:06:09;;;;;;;2.43;2.23;;;11.60;99.90;11.50;100133.00;;;;4928045;28;93048;-70
2023/05/15 01:08:43;;;;;;;3.87;2.47;;;11.50;99.90;11.50;100130.00;;;;4924168;28;92696;-70
2023/05/15 01:11:11;;;;;;;4.13;2.57;;;11.60;99.90;11.50;100130.00;;;;4928689;28;104435;-70
2023/05/15 01:13:37;;;;;;;1.97;1.77;;;11.50;99.90;11.50;100124.00;;;;4926883;28;93902;-70
2023/05/15 01:16:03;;;;;;;5.23;2.60;;;11.50;99.90;11.40;100129.00;;;;4923515;28;110964;-70
2023/05/15 01:18:32;;;;;;;4.50;2.47;;;11.50;99.90;11.40;100121.00;;;;4924585;28;93144;-70
2023/05/15 01:21:00;;;;;;;2.63;2.00;;;11.50;99.90;11.30;100120.00;;;;4925334;28;93281;-70
2023/05/15 01:24:05;;;;;;;2.30;2.10;;;11.40;99.90;11.20;100127.00;;;;4925705;28;93158;-70
2023/05/15 01:27:17;;;;;;;3.03;2.23;;;11.40;99.90;11.10;100117.00;;;;4905046;28;95229;-70
2023/05/15 01:30:07;;;;;;;2.73;2.17;;;11.30;99.90;11.10;100106.00;;;;4935268;28;94051;-70
2023/05/15 01:33:12;;;;;;;3.80;2.53;;;11.20;99.90;10.90;100110.00;;;;4923761;28;93173;-70
2023/05/15 01:36:08;;;;;;;3.73;2.20;;;11.10;99.90;10.90;100105.00;;;;4923729;28;92882;-70
2023/05/15 01:38:38;;;;;;;3.50;2.43;;;11.00;99.90;10.90;100113.00;;;;4925948;28;93099;-70
2023/05/15 01:41:21;;;;;;;2.53;2.33;;;11.00;99.90;10.80;100110.00;;;;4926005;28;93599;-70
2023/05/15 01:44:18;;;;;;;2.33;2.00;;;10.90;99.90;10.70;100102.00;;;;4925874;28;92762;-70
2023/05/15 01:46:48;;;;;;;3.30;2.40;;;10.90;99.90;10.80;100106.00;;;;4924209;28;93086;-70
2023/05/15 01:49:18;;;;;;;2.37;2.17;;;10.90;99.90;10.80;100096.00;;;;4927982;28;104101;-70
2023/05/15 01:51:50;;;;;;;2.47;2.27;;;10.90;99.90;10.70;100098.00;;;;4927193;28;93088;-70
2023/05/15 01:54:17;;;;;;;1.83;1.73;;;10.80;99.90;10.70;100087.00;;;;4923527;28;113437;-70
2023/05/15 01:56:44;;;;;;;3.63;2.40;;;10.80;99.90;10.70;100090.00;;;;4909748;28;122986;-70
2023/05/15 01:59:12;;;;;;;2.43;2.23;;;10.80;99.90;10.70;100082.00;;;;4922914;28;93161;-70
2023/05/15 02:01:39;;;;;;;3.90;3.03;;;10.80;99.90;10.70;100085.00;;;;4923479;28;92892;-70
2023/05/15 02:04:06;;;;;;;3.07;2.10;;;10.80;99.90;10.70;100083.00;;;;4924982;28;93829;-70
2023/05/15 02:06:32;;;;;;;4.83;2.73;;;10.70;99.90;10.60;100064.00;;;;4925252;28;93736;-70
2023/05/15 02:09:02;;;;;;;6.10;3.07;;;10.70;99.90;10.50;100063.00;;;;4923050;28;93011;-70
2023/05/15 02:11:28;;;;;;;3.17;2.73;;;10.60;99.90;10.40;100057.00;;;;4925159;28;93058;-70
2023/05/15 02:13:56;;;;;;;2.50;2.20;;;10.50;99.90;10.40;100055.00;;;;4922239;28;121559;-70
2023/05/15 02:16:22;;;;;;;2.90;2.40;;;10.50;99.90;10.40;100056.00;;;;4925009;28;92869;-70
2023/05/15 02:18:48;;;;;;;2.00;1.80;;;10.50;99.90;10.50;100053.00;;;;4920369;28;110697;-70
2023/05/15 02:21:14;;;;;;;2.43;2.00;;;10.50;99.90;10.50;100059.00;;;;4920420;28;108804;-69
2023/05/15 02:23:40;;;;;;;2.90;2.60;;;10.60;99.90;10.60;100059.00;;;;4923963;28;116603;-69
2023/05/15 02:26:49;;;;;;;2.60;2.40;;;10.70;99.90;10.70;100058.00;;;;4922378;28;93784;-70
2023/05/15 02:29:33;;;;;;;2.37;1.90;;;10.80;99.90;10.70;100054.00;;;;4922470;28;93042;-69
2023/05/15 02:32:13;;;;;;;4.03;2.93;;;10.80;99.90;10.80;100055.00;;;;4925293;28;93011;-70
2023/05/15 02:35:06;;;;;;;2.20;1.87;;;10.80;99.90;10.80;100054.00;;;;4923276;28;93213;-70
2023/05/15 02:37:38;;;;;;;3.67;2.50;;;10.90;99.90;10.80;100051.00;;;;4924317;28;110965;-70
2023/05/15 02:40:07;;;;;;;3.17;2.73;;;10.80;99.90;10.80;100058.00;;;;4922331;28;92271;-70
2023/05/15 02:42:35;;;;;;;3.47;2.70;;;10.80;99.90;10.80;100052.00;;;;4922114;28;95740;-70
2023/05/15 02:45:02;;;;;;;2.63;2.30;;;10.80;99.90;10.70;100045.00;;;;4923647;28;110297;-69
2023/05/15 02:47:28;;;;;;;4.67;3.33;;;10.80;99.90;10.70;100041.00;;;;4921608;28;94695;-70
2023/05/15 02:49:55;;;;;;;4.53;3.30;;;10.80;99.90;10.80;100040.00;;;;4926788;28;93154;-70
2023/05/15 02:52:23;;;;;;;3.30;2.13;;;10.80;99.90;10.90;100030.00;;;;4926170;28;93924;-71
2023/05/15 02:54:48;;;;;;;2.93;2.70;;;10.90;99.90;11.00;100040.00;;;;4929962;28;92937;-70
2023/05/15 02:57:14;;;;;;;2.87;2.47;;;10.90;99.90;11.00;100031.00;;;;4926661;28;122586;-69
2023/05/15 02:59:40;;;;;;;4.97;2.90;;;11.00;99.90;11.10;100045.00;;;;4925498;28;111908;-70
2023/05/15 03:02:06;;;;;;;3.40;2.97;;;11.10;99.90;11.10;100031.00;;;;4927885;28;92859;-70
2023/05/15 03:04:31;;;;;;;3.37;2.67;;;11.10;99.90;11.10;100028.00;;;;4925591;28;121658;-70
2023/05/15 03:06:57;;;;;;;3.43;3.13;;;11.10;99.90;11.20;100032.00;;;;4925211;28;122364;-70
2023/05/15 03:09:24;;;;;;;6.07;3.47;;;11.20;99.90;11.20;100024.00;;;;4927150;28;109406;-70
2023/05/15 03:11:49;;;;;;;3.03;2.73;;;11.20;99.90;11.20;100043.00;;;;4926863;28;93930;-71
2023/05/15 03:14:15;;;;;;;5.43;3.90;;;11.20;99.90;11.10;100051.00;;;;4929985;28;122955;-70
2023/05/15 03:16:41;;;;;;;3.73;2.27;;;11.10;99.90;10.80;100044.00;;;;4927655;28;123350;-72
2023/05/15 03:19:06;;;;;;;4.60;2.67;;;10.90;99.90;10.70;100039.00;;;;4919427;28;103119;-70
2023/05/15 03:21:33;;;;;;;2.40;2.20;;;10.80;99.90;10.60;100056.00;;;;4911374;28;108751;-70
2023/05/15 03:24:00;;;;;;;4.87;2.33;;;10.60;99.90;10.60;100049.00;;;;4922987;28;94034;-69
2023/05/15 03:26:25;;;;;;;2.53;2.33;;;10.70;99.90;10.50;100045.00;;;;4927763;28;94708;-69
2023/05/15 03:28:52;;;;;;;2.97;2.43;;;10.60;99.90;10.60;100036.00;;;;4928467;28;93573;-69
2023/05/15 03:31:17;;;;;;;3.00;2.70;;;10.60;99.90;10.60;100030.00;;;;4927205;28;97680;-69
2023/05/15 03:33:48;;;;;;;2.60;2.17;;;10.60;99.90;10.60;100039.00;;;;4922836;28;123604;-69
2023/05/15 03:36:14;;;;;;;2.30;2.10;;;10.60;99.90;10.70;100036.00;;;;4925729;28;93763;-69
2023/05/15 03:38:42;;;;;;;4.07;2.87;;;10.70;99.90;10.70;100024.00;;;;4930369;28;92845;-70
2023/05/15 03:41:09;;;;;;;2.33;2.03;;;10.70;99.90;10.80;100024.00;;;;4923394;28;92779;-70
2023/05/15 03:43:34;;;;;;;3.80;2.73;;;10.80;99.90;11.00;100028.00;;;;4924719;28;93290;-70
2023/05/15 03:46:00;;;;;;;2.23;2.03;;;10.90;99.90;11.00;100028.00;;;;4923338;28;122655;-70
2023/05/15 03:48:26;;;;;;;3.80;2.47;;;11.00;99.90;11.10;100030.00;;;;4925324;28;110616;-69
2023/05/15 03:50:52;;;;;;;3.80;2.80;;;11.10;99.90;11.20;100031.00;;;;4923792;28;107994;-69
2023/05/15 03:53:17;;;;;;;7.43;2.23;;;11.10;99.90;11.20;100020.00;;;;4923445;28;121815;-69
2023/05/15 03:55:43;;;;;;;4.70;2.23;;;11.20;99.90;11.30;100020.00;;;;4926808;28;120506;-70
2023/05/15 03:58:09;;;;;;;2.23;2.07;;;11.30;99.90;11.40;100025.00;;;;4926867;28;108838;-69
2023/05/15 04:00:34;;;;;;;2.30;1.97;;;11.40;99.90;11.40;100013.00;;;;4924342;28;93910;-69
2023/05/15 04:03:06;;;;;;;4.80;2.33;;;11.40;99.90;11.50;100012.00;;;;4924561;28;120739;-69
2023/05/15 04:05:35;;;;;;;2.07;1.83;;;11.50;99.90;11.60;100008.00;;;;4933655;28;112883;-69
2023/05/15 04:08:01;;;;;;;3.60;2.80;;;11.60;99.90;11.60;100015.00;;;;4930045;28;93243;-69
2023/05/15 04:10:26;;;;;;;2.10;1.80;;;11.60;99.90;11.70;100003.00;;;;4925670;28;93026;-69
2023/05/15 04:12:52;;;;;;;3.03;2.57;;;11.70;99.90;11.70;100003.00;;;;4926478;28;103094;-69
2023/05/15 04:15:24;;;;;;;1.77;1.67;;;11.70;99.90;11.80;99999.00;;;;4925236;28;121929;-69
2023/05/15 04:17:52;;;;;;;4.10;2.53;;;11.80;99.90;11.80;100000.00;;;;4926259;28;92271;-69
2023/05/15 04:20:23;;;;;;;2.97;2.67;;;11.80;99.90;11.80;99989.00;;;;4923865;28;93027;-69
2023/05/15 04:22:49;;;;;;;2.53;2.30;;;11.80;99.90;11.90;99983.00;;;;4924337;28;107324;-70
2023/05/15 04:25:15;;;;;;;2.40;2.13;;;11.80;99.90;11.90;99995.00;;;;4928173;28;111406;-69
2023/05/15 04:27:42;;;;;;;1.90;1.77;;;11.90;99.90;11.90;99976.00;;;;4924309;28;94859;-70
2023/05/15 04:30:09;;;;;;;3.10;2.40;;;11.90;99.90;11.90;99988.00;;;;4927793;28;92785;-69
2023/05/15 04:32:35;;;;;;;2.03;1.73;;;11.90;99.90;11.90;99986.00;;;;4926723;28;94102;-69
2023/05/15 04:35:04;;;;;;;2.47;2.00;;;11.90;99.90;12.00;99987.00;;;;4923166;28;113330;-69
2023/05/15 04:37:30;;;;;;;4.53;2.37;;;11.90;99.90;12.00;99988.00;;;;4926344;28;92888;-69
2023/05/15 04:39:56;;;;;;;3.07;1.93;;;12.00;99.90;12.10;99984.00;;;;4924745;28;93050;-69
2023/05/15 04:42:21;;;;;;;2.83;2.30;;;12.10;99.90;12.20;99984.00;;;;4925841;28;122495;-69
2023/05/15 04:44:47;;;;;;;2.30;2.03;;;12.10;99.90;12.20;99987.00;;;;4921760;28;121386;-69
2023/05/15 04:47:13;;;;;;;2.63;1.90;;;12.20;99.90;12.30;99972.00;;;;4923580;28;102437;-69
2023/05/15 04:49:40;;;;;;;2.13;1.73;;;12.30;99.90;12.40;99976.00;;;;4920289;28;107667;-69
2023/05/15 04:52:06;;;;;;;3.53;2.07;;;12.30;99.90;12.40;99978.00;;;;4922594;28;121745;-70
2023/05/15 04:54:32;;;;;;;4.23;1.83;;;12.40;99.90;12.50;99974.00;;;;4922055;28;93226;-69
2023/05/15 04:56:58;;;;;;;3.43;2.40;;;12.40;99.90;12.60;99980.00;;;;4920471;28;110497;-70
2023/05/15 04:59:24;;;;;;;3.10;2.30;;;12.50;99.90;12.60;99976.00;;;;4922929;28;95202;-69
2023/05/15 05:01:50;;;;;;;2.57;2.10;;;13.00;99.90;12.70;99974.00;;;;4921693;28;94456;-70
2023/05/15 05:04:18;;;;;;;2.40;2.20;;;12.60;99.90;12.70;99976.00;;;;4925710;28;120986;-69
2023/05/15 05:06:47;;;;;;;3.53;2.03;;;12.70;99.90;12.80;99978.00;;;;4928980;28;92223;-69
2023/05/15 05:09:13;;;;;;;3.20;2.20;;;12.80;99.90;12.90;99968.00;;;;4923950;28;93045;-69
2023/05/15 05:11:42;;;;;;;3.23;1.93;;;12.80;99.90;13.00;99968.00;;;;4924620;28;122042;-69
2023/05/15 05:14:13;;;;;;;2.23;1.87;;;12.90;99.90;13.00;99968.00;;;;4922921;28;93947;-69
2023/05/15 05:16:39;;;;;;;2.83;2.23;;;13.00;99.90;13.10;99968.00;;;;4928316;28;93266;-69
2023/05/15 05:19:05;;;;;;;4.00;1.97;;;13.00;99.90;13.10;99970.00;;;;4938734;28;92718;-69
2023/05/15 05:21:32;;;;;;;2.30;2.10;;;13.10;99.90;13.10;99966.00;;;;4949486;28;93603;-69
2023/05/15 05:23:57;;;;;;;1.90;1.80;;;13.10;99.90;13.10;99978.00;;;;4924198;28;93132;-70
2023/05/15 05:26:23;;;;;;;2.60;2.00;;;13.10;99.90;13.20;99973.00;;;;4924212;28;98427;-69
2023/05/15 05:28:49;;;;;;;4.43;1.77;;;13.10;99.90;13.20;99970.00;;;;4924825;28;96087;-69
2023/05/15 05:31:15;;;;;;;3.27;2.07;;;13.20;99.90;13.20;99971.00;;;;4922514;28;93277;-69
2023/05/15 05:33:41;;;;;;;2.33;1.80;;;13.20;99.90;13.30;99954.00;;;;4923981;28;121628;-70
2023/05/15 05:36:07;;;;;;;2.77;2.20;;;13.30;99.90;13.40;99968.00;;;;4927163;28;92818;-69
2023/05/15 05:38:35;;;;;;;2.63;2.43;;;13.30;99.90;13.50;99959.00;;;;4920794;28;96865;-69
2023/05/15 05:41:00;;;;;;;2.27;1.63;;;13.40;99.90;13.60;99962.00;;;;4921368;28;93116;-69
2023/05/15 05:43:26;;;;;;;2.63;2.43;;;13.50;99.90;13.70;99959.00;;;;4921736;28;116188;-69
2023/05/15 05:45:52;;;;;;;3.20;2.40;;;13.60;99.90;13.80;99956.00;;;;4923857;28;110109;-71
2023/05/15 05:48:18;;;;;;;4.37;2.20;;;13.70;99.90;13.80;99958.00;;;;4919870;28;109537;-71
2023/05/15 05:50:43;;;;;;;2.47;2.28;;;13.70;99.90;13.80;99948.00;;;;4925839;28;93425;-71
2023/05/15 05:53:09;;;;;;;5.57;2.27;;;13.80;99.90;13.90;99945.00;;;;4927724;28;121761;-71
2023/05/15 05:55:35;;;;;;;2.93;2.27;;;13.80;99.90;13.90;99938.00;;;;4927515;28;111094;-71
2023/05/15 05:58:01;;;;;;;3.83;2.37;;;13.90;99.90;14.00;99932.00;;;;4921585;28;107194;-71
2023/05/15 06:00:27;;;;;;;2.40;2.17;;;13.90;99.90;14.00;99933.00;;;;4925162;28;113385;-72
2023/05/15 06:02:58;;;;;;;2.23;2.03;;;13.90;99.90;14.00;99938.00;;;;4928384;28;123846;-72
2023/05/15 06:05:25;;;;;;;2.40;2.07;;;14.00;99.90;14.10;99933.00;;;;4925719;28;93090;-72
2023/05/15 06:07:55;;;;;;;5.95;3.10;;;14.00;99.90;14.10;99937.00;;;;4922760;28;93239;-71
2023/05/15 06:10:21;;;;;;;2.05;1.95;;;14.10;99.90;14.20;99933.00;;;;4923277;28;94281;-70
2023/05/15 06:12:47;;;;;;;2.33;2.13;;;14.10;99.90;14.20;99924.00;;;;4922796;28;93092;-70
2023/05/15 06:15:15;;;;;;;2.42;2.22;;;14.20;99.90;14.20;99922.00;;;;4922105;28;92904;-70
2023/05/15 06:17:40;;;;;;;2.47;2.15;;;14.10;99.90;14.30;99921.00;;;;4919594;28;93068;-69
2023/05/15 06:20:07;;;;;;;2.05;1.95;;;14.20;99.90;14.30;99915.00;;;;4923145;28;92475;-69
2023/05/15 06:22:34;;;;;;;3.10;2.63;;;14.20;99.90;14.30;99910.00;;;;4924096;28;92837;-70
2023/05/15 06:25:01;;;;;;;2.25;2.05;;;14.30;99.90;14.40;99907.00;;;;4930161;28;92875;-71
2023/05/15 06:27:28;;;;;;;14.40;2.65;;;14.30;99.90;14.50;99901.00;;;;4927395;28;94110;-71
2023/05/15 06:29:53;;;;;;;2.27;2.07;;;14.40;99.90;14.50;99900.00;;;;4926157;28;94318;-70
2023/05/15 06:32:25;;;;;;;4.07;2.30;;;14.40;99.90;14.50;99898.00;;;;4925218;28;113881;-69
2023/05/15 06:34:51;;;;;;;2.45;2.20;;;14.60;99.90;14.50;99893.00;;;;4923718;28;93147;-69
2023/05/15 06:37:16;;;;;;;3.28;2.28;;;14.50;99.90;14.50;99888.00;;;;4926612;28;94978;-69
2023/05/15 06:39:42;;;;;;;2.40;2.03;;;14.50;99.90;14.50;99896.00;;;;4924350;28;122478;-68
2023/05/15 06:42:08;;;;;;;1.73;1.63;;;14.50;99.90;14.60;99896.00;;;;4923335;28;122677;-69
2023/05/15 06:44:34;;;;;;;2.23;2.03;;;14.50;99.90;14.60;99896.00;;;;4926016;28;92245;-70
2023/05/15 06:47:00;;;;;;;2.90;1.90;;;14.50;99.90;14.60;99889.00;;;;4932202;28;93234;-68
2023/05/15 06:49:26;;;;;;;3.03;2.70;;;14.30;99.90;14.60;99885.00;;;;4926641;28;93253;-69
2023/05/15 06:51:53;;;;;;;2.63;2.40;;;14.50;99.90;14.60;99890.00;;;;4927103;28;93935;-70
2023/05/15 06:54:19;;;;;;;4.78;2.35;;;14.50;99.90;14.60;99893.00;;;;4926775;28;92959;-70
2023/05/15 06:56:45;;;;;;;2.65;2.17;;;14.50;99.90;14.70;99887.00;;;;4924500;28;99632;-68
2023/05/15 06:59:10;;;;;;;3.97;2.45;;;14.60;99.90;14.70;99887.00;;;;4923478;28;122661;-69
2023/05/15 07:01:37;;;;;;;3.55;2.28;;;14.60;99.90;14.70;99880.00;;;;4924346;28;121993;-69
2023/05/15 07:04:03;;;;;;;2.88;2.35;;;14.60;99.90;14.80;99878.00;;;;4925026;28;92866;-70
2023/05/15 07:06:30;;;;;;;2.08;1.88;;;14.70;99.90;14.80;99885.00;;;;4930637;28;98724;-69
2023/05/15 07:08:57;;;;;;;3.15;2.85;;;14.70;99.90;14.90;99881.00;;;;4922524;28;93626;-69
2023/05/15 07:11:23;;;;;;;3.15;2.38;;;14.80;99.90;15.00;99884.00;;;;4925978;28;93024;-69
2023/05/15 07:13:48;;;;;;;2.05;1.70;;;14.80;99.90;15.10;99885.00;;;;4925235;28;100941;-69
2023/05/15 07:16:14;;;;;;;5.28;2.97;;;14.90;99.90;15.10;99880.00;;;;4927983;28;93889;-69
2023/05/15 07:18:40;;;;;;;3.25;2.40;;;15.00;99.90;15.20;99881.00;;;;4927608;28;122668;-69
2023/05/15 07:21:06;;;;;;;2.30;1.67;;;15.10;99.90;15.20;99885.00;;;;4924833;28;122929;-69
2023/05/15 07:23:31;;;;;;;2.05;1.92;;;15.10;99.90;15.30;99880.00;;;;4932130;28;94728;-69
2023/05/15 07:25:57;;;;;;;3.13;2.83;;;15.20;99.90;15.30;99867.00;;;;4927554;28;108086;-69
2023/05/15 07:28:22;;;;;;;3.25;2.28;;;15.20;99.90;15.40;99866.00;;;;4926024;28;122750;-69
2023/05/15 07:30:48;;;;;;;2.85;1.73;;;15.30;99.90;15.50;99868.00;;;;4924328;28;124124;-69
2023/05/15 07:33:14;;;;;;;4.55;3.08;;;15.30;99.90;15.50;99868.00;;;;4923648;28;111387;-70
2023/05/15 07:35:40;;;;;;;3.63;2.13;;;15.40;99.90;15.60;99865.00;;;;4926897;28;92922;-71
2023/05/15 07:38:05;;;;;;;3.30;3.00;;;15.50;99.90;15.70;99864.00;;;;4924267;28;122577;-72
2023/05/15 07:40:31;;;;;;;4.70;2.17;;;15.50;99.90;15.70;99867.00;;;;4926454;28;93716;-71
2023/05/15 07:42:57;;;;;;;3.28;2.97;;;15.60;99.90;15.90;99877.00;;;;4924482;28;92877;-70
2023/05/15 07:45:23;;;;;;;2.88;2.17;;;15.70;99.90;16.00;99880.00;;;;4930402;28;93065;-70
2023/05/15 07:47:49;;;;;;;2.83;2.53;;;15.80;99.90;16.10;99889.00;;;;4923376;28;113114;-70
2023/05/15 07:50:16;;;;;;;2.92;2.55;;;15.90;99.90;16.20;99887.00;;;;4926959;28;93096;-70
2023/05/15 07:52:42;;;;;;;3.00;2.67;;;16.10;99.90;16.30;99885.00;;;;4929464;28;93019;-70
2023/05/15 07:55:09;;;;;;;2.95;2.38;;;16.20;99.90;16.50;99881.00;;;;4924336;28;92785;-70
2023/05/15 07:57:36;;;;;;;3.55;2.25;;;16.30;99.90;16.50;99877.00;;;;4925418;28;92207;-71
2023/05/15 08:00:08;;;;;;;4.85;2.50;;;16.40;99.90;16.60;99881.00;;;;4925329;28;92952;-69
2023/05/15 08:02:33;;;;;;;6.63;2.33;;;16.40;99.90;16.70;99886.00;;;;4928148;28;92925;-71
2023/05/15 08:04:59;;;;;;;2.20;2.00;;;16.50;99.90;16.70;99879.00;;;;4924590;28;108655;-69
2023/05/15 08:07:25;;;;;;;3.47;2.90;;;16.60;99.90;16.80;99879.00;;;;4924343;28;93430;-70
2023/05/15 08:09:50;;;;;;;3.38;2.50;;;16.70;99.90;16.90;99873.00;;;;4920638;28;121687;-70
2023/05/15 08:12:19;;;;;;;2.78;2.40;;;16.80;99.90;17.00;99881.00;;;;4925497;28;94211;-70
2023/05/15 08:14:55;;;;;;;3.63;3.33;;;16.80;99.90;16.90;99876.00;;;;4927329;28;93062;-71
2023/05/15 08:17:24;;;;;;;2.83;2.63;;;16.80;99.90;16.90;99860.00;;;;4924972;28;94075;-70
2023/05/15 08:19:50;;;;;;;3.78;2.55;;;16.80;99.90;16.90;99863.00;;;;4923617;28;92849;-72
2023/05/15 08:22:15;;;;;;;5.20;2.70;;;16.70;99.90;16.90;99865.00;;;;4926939;28;92148;-72
2023/05/15 08:24:41;;;;;;;3.95;2.67;;;16.80;99.90;17.00;99865.00;;;;4926611;28;93178;-73
2023/05/15 08:27:08;;;;;;;3.55;2.70;;;16.80;99.90;17.10;99857.00;;;;4924018;28;122860;-72
2023/05/15 08:30:11;;;;;;;4.25;2.72;;;16.90;99.90;17.20;99863.00;;;;4927539;28;98179;-72
2023/05/15 08:32:37;;;;;;;2.35;2.13;;;17.10;99.90;17.30;99854.00;;;;4925311;28;102913;-73
2023/05/15 08:35:03;;;;;;;3.47;2.60;;;17.20;99.90;17.40;99863.00;;;;4924856;28;92753;-72
2023/05/15 08:37:29;;;;;;;2.78;2.30;;;17.20;99.90;17.50;99847.00;;;;4927689;28;93133;-70
2023/05/15 08:39:55;;;;;;;4.97;2.63;;;17.30;99.90;17.60;99854.00;;;;4923803;28;92998;-69
2023/05/15 08:42:46;;;;;;;5.13;3.22;;;17.40;99.90;17.70;99853.00;;;;4927108;28;95685;-69
2023/05/15 08:45:13;;;;;;;4.82;2.63;;;17.50;99.90;17.90;99851.00;;;;4931245;28;92701;-69
2023/05/15 08:47:41;;;;;;;2.95;2.47;;;17.70;99.70;18.00;99854.00;;;;4925430;28;92606;-69
2023/05/15 08:50:14;;;;;;;4.47;2.92;;;17.80;99.50;18.20;99858.00;;;;4923840;28;93242;-68
2023/05/15 08:52:48;;;;;;;3.17;2.65;;;18.00;99.10;18.30;99854.00;;;;4930737;28;93229;-68
2023/05/15 08:55:15;;;;;;;3.25;2.97;;;18.10;98.60;18.40;99845.00;;;;4927504;28;93853;-69
2023/05/15 08:57:42;;;;;;;3.88;3.25;;;18.20;98.40;18.50;99844.00;;;;4923335;28;93494;-70
2023/05/15 09:00:10;;;;;;;3.42;2.08;;;18.30;98.10;18.60;99851.00;;;;4923807;28;93760;-69
2023/05/15 09:02:38;;;;;;;5.07;3.30;;;18.40;97.60;18.80;99855.00;;;;4926999;28;92968;-68
2023/05/15 09:05:05;;;;;;;3.55;2.17;;;18.60;97.20;19.00;99848.00;;;;4925609;28;98130;-71
2023/05/15 09:07:31;;;;;;;3.10;2.75;;;18.80;96.30;19.20;99841.00;;;;4926669;28;94728;-70
2023/05/15 09:09:58;;;;;;;2.72;2.08;;;19.00;96.00;19.40;99842.00;;;;4925147;28;92949;-69
2023/05/15 09:12:25;;;;;;;3.40;2.90;;;19.10;94.50;19.60;99835.00;;;;4924471;28;92163;-69
2023/05/15 09:15:07;;;;;;;2.97;2.25;;;19.30;94.30;19.80;99839.00;;;;4924576;28;92965;-69
2023/05/15 09:17:33;;;;;;;2.08;1.83;;;19.50;94.00;19.90;99836.00;;;;4929319;28;93102;-70
2023/05/15 09:19:58;;;;;;;3.00;2.30;;;19.70;93.20;20.10;99844.00;;;;4924621;28;122315;-69
2023/05/15 09:22:24;;;;;;;2.38;1.85;;;19.80;92.60;20.20;99831.00;;;;4922141;28;111512;-69
2023/05/15 09:24:56;;;;;;;2.55;1.98;;;19.90;91.90;20.40;99836.00;;;;4926878;28;92964;-68
2023/05/15 09:27:23;;;;;;;4.07;2.28;;;20.10;91.50;20.60;99832.00;;;;4923482;28;93970;-71
2023/05/15 09:29:53;;;;;;;2.95;2.25;;;20.30;91.00;20.70;99830.00;;;;4919696;28;122508;-71
2023/05/15 09:32:19;;;;;;;3.00;2.10;;;20.40;90.40;20.70;99835.00;;;;4924738;28;92760;-69
2023/05/15 09:34:45;;;;;;;4.35;2.17;;;20.50;89.80;20.80;99840.00;;;;4921855;28;107134;-69
2023/05/15 09:37:28;;;;;;;3.28;2.58;;;20.50;88.40;20.70;99829.00;;;;4925025;28;92076;-68
2023/05/15 09:39:54;;;;;;;6.70;2.53;;;20.50;87.40;20.60;99830.00;;;;4923370;28;92687;-71
2023/05/15 09:42:23;;;;;;;3.92;2.58;;;20.40;86.70;20.60;99824.00;;;;4922729;28;92846;-70
2023/05/15 09:44:49;;;;;;;4.03;2.72;;;20.40;86.90;20.60;99836.00;;;;4922922;28;94051;-69
2023/05/15 09:47:17;;;;;;;3.33;2.75;;;20.40;86.30;20.70;99826.00;;;;4922929;28;121096;-69
2023/05/15 09:49:44;;;;;;;3.15;2.55;;;20.40;86.20;20.80;99826.00;;;;4928149;28;95274;-70
2023/05/15 09:52:10;;;;;;;3.05;2.17;;;20.50;86.10;20.90;99823.00;;;;4912234;28;93129;-71
2023/05/15 09:54:36;;;;;;;2.83;2.50;;;20.70;85.00;21.10;99823.00;;;;4924505;28;109130;-69
2023/05/15 09:57:11;;;;;;;3.42;1.80;;;20.80;84.50;21.40;99817.00;;;;4929922;28;93495;-69
2023/05/15 09:59:46;;;;;;;3.17;2.08;;;21.00;83.10;21.60;99822.00;;;;4916751;28;95046;-69
2023/05/15 10:02:31;;;;;;;3.03;2.20;;;21.20;81.80;21.80;99822.00;;;;4928678;28;92186;-70
2023/05/15 10:04:57;;;;;;;3.80;2.20;;;21.40;81.00;22.00;99813.00;;;;4928113;28;93281;-69
2023/05/15 10:07:32;;;;;;;4.53;2.20;;;21.60;80.00;22.20;99819.00;;;;4926414;28;93538;-70
2023/05/15 10:09:59;;;;;;;2.20;2.00;;;21.90;79.00;22.40;99811.00;;;;4925366;28;93875;-70
2023/05/15 10:12:25;;;;;;;4.30;2.08;;;22.10;78.20;22.60;99809.00;;;;4926578;28;93024;-70
2023/05/15 10:14:55;;;;;;;4.22;2.67;;;22.20;76.90;22.90;99821.00;;;;4925901;28;93264;-70
2023/05/15 10:17:21;;;;;;;3.30;2.08;;;22.50;76.30;23.20;99822.00;;;;4926679;28;96685;-69
2023/05/15 10:19:50;;;;;;;2.63;2.40;;;22.70;74.30;23.50;99819.00;;;;4923519;28;123015;-69
2023/05/15 10:22:24;;;;;;;6.85;2.28;;;23.00;72.90;23.70;99807.00;;;;4926324;28;93018;-69
2023/05/15 10:25:02;;;;;;;2.30;2.10;;;23.30;71.70;23.90;99805.00;;;;4925304;28;92890;-68
2023/05/15 10:27:29;;;;;;;2.45;2.15;;;23.50;69.00;23.90;99807.00;;;;4925699;28;92416;-69
2023/05/15 10:29:57;;;;;;;2.78;1.90;;;23.60;66.60;23.90;99806.00;;;;4927161;28;92810;-71
2023/05/15 10:32:24;;;;;;;3.50;2.20;;;23.60;65.80;23.90;99806.00;;;;4928086;28;110706;-69
2023/05/15 10:34:53;;;;;;;2.65;2.10;;;23.60;64.90;23.80;99809.00;;;;4922288;28;94028;-69
2023/05/15 10:37:19;;;;;;;2.40;2.20;;;23.60;64.20;23.80;99810.00;;;;4928400;28;93806;-70
2023/05/15 10:39:46;;;;;;;1.83;1.70;;;23.50;62.70;23.50;99810.00;;;;4928674;28;122321;-72
2023/05/15 10:42:12;;;;;;;2.47;2.28;;;23.40;61.80;23.30;99808.00;;;;4927356;28;96198;-71
2023/05/15 10:44:38;;;;;;;3.63;2.50;;;23.20;60.50;23.10;99808.00;;;;4925029;28;107910;-72
2023/05/15 10:47:05;;;;;;;5.32;2.22;;;22.90;60.30;22.90;99812.00;;;;4927303;28;122183;-71
2023/05/15 10:49:30;;;;;;;3.25;1.88;;;22.80;60.30;22.90;99798.00;;;;4924358;28;92966;-70
2023/05/15 10:51:59;;;;;;;1.98;1.88;;;22.70;60.30;22.80;99799.00;;;;4924469;28;111180;-74
2023/05/15 10:54:25;;;;;;;2.42;2.08;;;22.60;60.00;22.80;99795.00;;;;4924232;28;92937;-70